Time;durP1;ratioP1;P1;durP2;ratioP2;P2;SDS_P1;SDS_P2;PMS_P1;PMS_P2;Temp;Humidity;BMP_temperature;BMP_pressure;BME280_temperature;BME280_humidity;BME280_pressure;Samples;Min_cycle;Max_cycle;Signal;HPM_P1;HPM_P2
2022/11/30 00:00:06;;;;;;;17.33;13.43;;;;;;;;;;5078435;28;20082;-71
2022/11/30 00:02:32;;;;;;;13.95;10.23;;;;;;;;;;5077043;28;20344;-72
2022/11/30 00:04:58;;;;;;;15.70;9.70;;;;;;;;;;5086438;28;20044;-72
2022/11/30 00:07:24;;;;;;;13.80;10.07;;;;;;;;;;5089002;28;20039;-72
2022/11/30 00:09:50;;;;;;;17.48;10.70;;;;;;;;;;5088274;28;20178;-72
2022/11/30 00:12:16;;;;;;;14.32;9.27;;;;;;;;;;5090805;28;20047;-71
2022/11/30 00:14:43;;;;;;;13.77;9.73;;;;;;;;;;5089008;28;20082;-72
2022/11/30 00:17:09;;;;;;;11.60;8.50;;;;;;;;;;5079171;28;20124;-72
2022/11/30 00:19:35;;;;;;;13.88;9.18;;;;;;;;;;5087722;28;20048;-72
2022/11/30 00:22:01;;;;;;;11.15;8.20;;;;;;;;;;5083244;28;20097;-71
2022/11/30 00:24:27;;;;;;;11.05;9.15;;;;;;;;;;5089534;28;20158;-72
2022/11/30 00:26:53;;;;;;;11.52;8.80;;;;;;;;;;5117129;27;20066;-72
2022/11/30 00:29:20;;;;;;;13.63;9.52;;;;;;;;;;5130263;27;20043;-71
2022/11/30 00:31:46;;;;;;;15.32;11.38;;;;;;;;;;5117850;27;20040;-72
2022/11/30 00:34:12;;;;;;;15.82;10.90;;;;;;;;;;5110722;27;20051;-71
2022/11/30 00:36:38;;;;;;;15.23;10.57;;;;;;;;;;5122706;27;20106;-71
2022/11/30 00:39:04;;;;;;;19.02;11.88;;;;;;;;;;5130550;27;20053;-71
2022/11/30 00:41:30;;;;;;;14.88;10.55;;;;;;;;;;5128519;27;20047;-71
2022/11/30 00:43:56;;;;;;;18.67;11.43;;;;;;;;;;5129692;27;20130;-72
2022/11/30 00:46:23;;;;;;;14.45;10.68;;;;;;;;;;5128396;27;20085;-72
2022/11/30 00:48:49;;;;;;;20.27;11.90;;;;;;;;;;5130713;27;20080;-71
2022/11/30 00:51:15;;;;;;;21.42;13.48;;;;;;;;;;5083307;27;20048;-71
2022/11/30 00:53:41;;;;;;;18.85;13.48;;;;;;;;;;5128141;27;20050;-71
2022/11/30 00:56:08;;;;;;;19.27;12.82;;;;;;;;;;5123279;27;20047;-71
2022/11/30 00:58:34;;;;;;;17.45;14.05;;;;;;;;;;5125326;27;20304;-72
2022/11/30 01:01:00;;;;;;;18.52;14.10;;;;;;;;;;5107130;27;20047;-71
2022/11/30 01:03:26;;;;;;;17.60;13.07;;;;;;;;;;5121488;27;20043;-72
2022/11/30 01:05:53;;;;;;;17.05;12.30;;;;;;;;;;5106048;28;20043;-72
2022/11/30 01:08:19;;;;;;;21.48;13.57;;;;;;;;;;5095709;28;20180;-71
2022/11/30 01:10:48;;;;;;;17.13;12.13;;;;;;;;;;5127261;27;20039;-71
2022/11/30 01:13:14;;;;;;;18.33;12.63;;;;;;;;;;5108706;27;20559;-72
2022/11/30 01:15:42;;;;;;;17.08;12.27;;;;;;;;;;5129486;27;20054;-72
2022/11/30 01:18:09;;;;;;;20.30;13.73;;;;;;;;;;5129446;27;20054;-72
2022/11/30 01:20:35;;;;;;;16.95;12.70;;;;;;;;;;5093171;27;20432;-72
2022/11/30 01:23:01;;;;;;;19.23;12.77;;;;;;;;;;5113239;27;20050;-72
2022/11/30 01:25:27;;;;;;;22.60;14.07;;;;;;;;;;5130984;27;20099;-71
2022/11/30 01:27:53;;;;;;;21.42;14.15;;;;;;;;;;5129439;27;20104;-71
2022/11/30 01:30:19;;;;;;;20.67;14.25;;;;;;;;;;5127646;27;20058;-72
2022/11/30 01:32:46;;;;;;;19.15;13.77;;;;;;;;;;5110575;27;20043;-72
2022/11/30 01:35:12;;;;;;;23.75;14.43;;;;;;;;;;5105755;28;20055;-72
2022/11/30 01:37:38;;;;;;;19.25;13.18;;;;;;;;;;5106596;27;20124;-72
2022/11/30 01:40:05;;;;;;;21.23;15.30;;;;;;;;;;5128253;27;20050;-73
2022/11/30 01:42:31;;;;;;;21.52;15.77;;;;;;;;;;5117051;27;20440;-72
2022/11/30 01:44:59;;;;;;;21.63;15.07;;;;;;;;;;5117443;27;20043;-72
2022/11/30 01:47:46;;;;;;;18.25;13.10;;;;;;;;;;5127207;27;20446;-72
2022/11/30 01:50:14;;;;;;;19.67;13.73;;;;;;;;;;5117936;27;20039;-72
2022/11/30 01:52:44;;;;;;;19.92;14.82;;;;;;;;;;5125147;27;20101;-72
2022/11/30 01:55:10;;;;;;;20.55;13.80;;;;;;;;;;5118696;27;20042;-72
2022/11/30 01:57:41;;;;;;;21.90;14.23;;;;;;;;;;5123914;27;20035;-72
2022/11/30 02:00:09;;;;;;;21.05;14.00;;;;;;;;;;5112202;27;20031;-72
2022/11/30 02:02:43;;;;;;;21.27;14.00;;;;;;;;;;5124842;27;20036;-72
2022/11/30 02:05:13;;;;;;;23.60;16.15;;;;;;;;;;5110978;27;20404;-72
2022/11/30 02:07:40;;;;;;;21.42;15.55;;;;;;;;;;5125783;27;20035;-72
2022/11/30 02:10:09;;;;;;;24.20;15.18;;;;;;;;;;5091615;27;20044;-72
2022/11/30 02:12:44;;;;;;;26.85;16.77;;;;;;;;;;5102902;27;20426;-72
2022/11/30 02:15:12;;;;;;;22.70;14.95;;;;;;;;;;5126760;27;20508;-72
2022/11/30 02:17:45;;;;;;;20.58;14.43;;;;;;;;;;5110882;27;20039;-72
2022/11/30 02:20:11;;;;;;;17.77;14.07;;;;;;;;;;5118255;27;20043;-71
2022/11/30 02:22:43;;;;;;;26.98;16.25;;;;;;;;;;5127867;27;20035;-72
2022/11/30 02:25:15;;;;;;;21.95;15.05;;;;;;;;;;5128031;27;20441;-72
2022/11/30 02:27:59;;;;;;;21.57;14.90;;;;;;;;;;5127240;27;20040;-72
2022/11/30 02:30:26;;;;;;;20.20;14.77;;;;;;;;;;5117112;27;20072;-72
2022/11/30 02:33:09;;;;;;;24.15;16.23;;;;;;;;;;5118764;27;20301;-71
2022/11/30 02:35:38;;;;;;;23.05;14.88;;;;;;;;;;5126100;27;20065;-72
2022/11/30 02:38:04;;;;;;;21.38;13.43;;;;;;;;;;5115856;27;20154;-71
2022/11/30 02:40:30;;;;;;;18.70;14.00;;;;;;;;;;5121125;27;20054;-72
2022/11/30 02:42:59;;;;;;;20.45;14.25;;;;;;;;;;5128378;27;20096;-72
2022/11/30 02:45:34;;;;;;;21.67;14.02;;;;;;;;;;5119297;27;20575;-72
2022/11/30 02:48:06;;;;;;;15.68;11.23;;;;;;;;;;5110760;28;20043;-71
2022/11/30 02:50:50;;;;;;;14.43;9.73;;;;;;;;;;5127596;27;20043;-72
2022/11/30 02:53:16;;;;;;;16.15;11.10;;;;;;;;;;5124070;27;20039;-72
2022/11/30 02:55:42;;;;;;;17.88;12.02;;;;;;;;;;5127616;27;20361;-72
2022/11/30 02:58:08;;;;;;;16.83;12.25;;;;;;;;;;5119052;27;20043;-72
2022/11/30 03:00:34;;;;;;;15.23;12.02;;;;;;;;;;5103997;28;20450;-72
2022/11/30 03:03:01;;;;;;;16.48;10.98;;;;;;;;;;5118966;28;20050;-71
2022/11/30 03:05:27;;;;;;;16.30;12.02;;;;;;;;;;5120303;28;20096;-72
2022/11/30 03:07:53;;;;;;;14.23;10.98;;;;;;;;;;5128399;28;20369;-72
2022/11/30 03:10:19;;;;;;;17.33;12.07;;;;;;;;;;5127290;28;20049;-72
2022/11/30 03:12:45;;;;;;;18.02;12.40;;;;;;;;;;5126114;28;20042;-71
2022/11/30 03:15:11;;;;;;;16.35;11.73;;;;;;;;;;5111424;28;20071;-72
2022/11/30 03:17:38;;;;;;;19.42;11.10;;;;;;;;;;5118901;28;20050;-73
2022/11/30 03:20:04;;;;;;;18.70;11.88;;;;;;;;;;5126565;28;20400;-73
2022/11/30 03:22:30;;;;;;;22.35;14.30;;;;;;;;;;5119542;28;20036;-72
2022/11/30 03:24:56;;;;;;;18.58;12.77;;;;;;;;;;5115429;28;20048;-71
2022/11/30 03:27:23;;;;;;;18.92;13.20;;;;;;;;;;5116867;28;20058;-72
2022/11/30 03:29:49;;;;;;;21.30;13.80;;;;;;;;;;5123314;28;20532;-72
2022/11/30 03:32:15;;;;;;;38.58;13.40;;;;;;;;;;5121326;28;20079;-73
2022/11/30 03:34:41;;;;;;;16.98;11.95;;;;;;;;;;5125660;28;20115;-72
2022/11/30 03:37:07;;;;;;;24.02;12.15;;;;;;;;;;5127670;28;20043;-72
2022/11/30 03:39:33;;;;;;;15.43;10.35;;;;;;;;;;5115530;28;20036;-72
2022/11/30 03:41:59;;;;;;;22.80;12.40;;;;;;;;;;5120747;28;20040;-72
2022/11/30 03:44:25;;;;;;;14.85;9.75;;;;;;;;;;5125751;28;20069;-72
2022/11/30 03:46:51;;;;;;;15.27;10.40;;;;;;;;;;5126340;28;20054;-72
2022/11/30 03:49:17;;;;;;;16.20;8.85;;;;;;;;;;5130430;27;20138;-72
2022/11/30 03:51:43;;;;;;;15.43;9.27;;;;;;;;;;5112612;27;20092;-72
2022/11/30 03:54:09;;;;;;;25.75;11.73;;;;;;;;;;5124931;27;20058;-70
2022/11/30 03:56:36;;;;;;;16.27;10.60;;;;;;;;;;5123854;27;20078;-72
2022/11/30 03:59:02;;;;;;;24.08;11.80;;;;;;;;;;5115390;27;20132;-71
2022/11/30 04:01:28;;;;;;;18.90;11.20;;;;;;;;;;5132081;27;20107;-71
2022/11/30 04:03:54;;;;;;;14.90;10.68;;;;;;;;;;5101650;27;20474;-72
2022/11/30 04:06:21;;;;;;;12.85;9.93;;;;;;;;;;5119330;27;20035;-72
2022/11/30 04:08:47;;;;;;;55.33;14.20;;;;;;;;;;5127446;27;20043;-72
2022/11/30 04:11:13;;;;;;;25.63;11.93;;;;;;;;;;5113936;27;20042;-72
2022/11/30 04:13:40;;;;;;;28.55;13.73;;;;;;;;;;5115207;27;20130;-72
2022/11/30 04:16:06;;;;;;;24.23;9.52;;;;;;;;;;5129341;27;20046;-72
2022/11/30 04:18:33;;;;;;;15.75;9.25;;;;;;;;;;5124826;27;20050;-72
2022/11/30 04:21:00;;;;;;;37.42;12.75;;;;;;;;;;5116012;27;20515;-72
2022/11/30 04:23:29;;;;;;;29.50;11.70;;;;;;;;;;5097468;28;20043;-71
2022/11/30 04:25:56;;;;;;;29.55;11.00;;;;;;;;;;5129728;27;20163;-71
2022/11/30 04:28:22;;;;;;;13.98;9.80;;;;;;;;;;5130604;27;21162;-72
2022/11/30 04:30:48;;;;;;;12.88;10.20;;;;;;;;;;5111806;27;20485;-71
2022/11/30 04:33:15;;;;;;;16.30;11.43;;;;;;;;;;5130536;27;20043;-72
2022/11/30 04:35:54;;;;;;;17.73;10.95;;;;;;;;;;5129377;27;20043;-71
2022/11/30 04:38:20;;;;;;;10.60;9.02;;;;;;;;;;5125515;27;20036;-72
2022/11/30 04:40:46;;;;;;;13.73;9.77;;;;;;;;;;5124722;27;20100;-72
2022/11/30 04:43:12;;;;;;;11.13;8.82;;;;;;;;;;5128318;27;20047;-71
2022/11/30 04:45:38;;;;;;;11.23;8.70;;;;;;;;;;5118867;27;20071;-72
2022/11/30 04:48:05;;;;;;;11.32;8.80;;;;;;;;;;5129992;27;20046;-71
2022/11/30 04:50:31;;;;;;;14.13;8.60;;;;;;;;;;5130026;27;20316;-72
2022/11/30 04:52:57;;;;;;;10.02;8.40;;;;;;;;;;5129748;27;20035;-72
2022/11/30 04:55:24;;;;;;;12.07;8.55;;;;;;;;;;5127281;27;20523;-72
2022/11/30 04:57:50;;;;;;;9.65;7.07;;;;;;;;;;5123826;27;20138;-72
2022/11/30 05:00:16;;;;;;;11.80;9.25;;;;;;;;;;5128593;27;20043;-72
2022/11/30 05:02:43;;;;;;;11.43;9.10;;;;;;;;;;5120603;27;20043;-71
2022/11/30 05:05:09;;;;;;;12.75;9.27;;;;;;;;;;5111152;27;20119;-71
2022/11/30 05:07:35;;;;;;;12.13;9.23;;;;;;;;;;5114486;27;20035;-72
2022/11/30 05:10:01;;;;;;;12.38;8.68;;;;;;;;;;5121695;27;20047;-72
2022/11/30 05:12:27;;;;;;;10.07;7.55;;;;;;;;;;5122762;27;20042;-72
2022/11/30 05:14:54;;;;;;;11.13;8.52;;;;;;;;;;5109482;27;20116;-72
2022/11/30 05:17:20;;;;;;;12.55;9.88;;;;;;;;;;5112477;27;20028;-71
2022/11/30 05:19:46;;;;;;;9.52;8.05;;;;;;;;;;5113841;27;20035;-72
2022/11/30 05:22:12;;;;;;;11.10;8.13;;;;;;;;;;5117704;27;20039;-72
2022/11/30 05:24:38;;;;;;;12.02;9.68;;;;;;;;;;5098942;27;20040;-72
2022/11/30 05:27:04;;;;;;;13.60;8.15;;;;;;;;;;5117045;27;20136;-72
2022/11/30 05:29:30;;;;;;;13.65;10.00;;;;;;;;;;5113950;27;20044;-73
2022/11/30 05:31:56;;;;;;;14.05;9.63;;;;;;;;;;5113542;27;20524;-71
2022/11/30 05:34:22;;;;;;;12.05;9.23;;;;;;;;;;5114159;27;20044;-71
2022/11/30 05:36:49;;;;;;;11.73;9.20;;;;;;;;;;5118395;27;20039;-72
2022/11/30 05:39:15;;;;;;;15.70;10.18;;;;;;;;;;5123375;27;20043;-72
2022/11/30 05:41:41;;;;;;;14.75;9.95;;;;;;;;;;5098589;27;20043;-71
2022/11/30 05:44:08;;;;;;;16.73;10.45;;;;;;;;;;5112760;27;20067;-72
2022/11/30 05:46:34;;;;;;;13.60;10.25;;;;;;;;;;5093533;27;20096;-71
2022/11/30 05:49:00;;;;;;;14.82;8.88;;;;;;;;;;5111714;27;20393;-72
2022/11/30 05:51:26;;;;;;;15.00;10.43;;;;;;;;;;5112937;27;20043;-72
2022/11/30 05:53:52;;;;;;;13.00;10.25;;;;;;;;;;5104736;27;20035;-72
2022/11/30 05:56:19;;;;;;;13.57;10.38;;;;;;;;;;5108890;27;20053;-72
2022/11/30 05:58:46;;;;;;;11.75;9.63;;;;;;;;;;5113378;27;20439;-72
2022/11/30 06:01:19;;;;;;;13.05;10.57;;;;;;;;;;5114055;27;20055;-72
2022/11/30 06:03:45;;;;;;;13.68;9.60;;;;;;;;;;5113241;27;20061;-72
2022/11/30 06:06:11;;;;;;;16.67;9.80;;;;;;;;;;5126314;27;20090;-72
2022/11/30 06:08:38;;;;;;;14.13;9.23;;;;;;;;;;5124543;27;20043;-72
2022/11/30 06:11:04;;;;;;;16.10;11.45;;;;;;;;;;5112272;27;20036;-71
2022/11/30 06:13:33;;;;;;;14.23;10.60;;;;;;;;;;5112084;27;20085;-72
2022/11/30 06:16:00;;;;;;;14.18;10.35;;;;;;;;;;5123249;27;20036;-72
2022/11/30 06:18:26;;;;;;;11.75;9.27;;;;;;;;;;5121771;27;20046;-70
2022/11/30 06:20:52;;;;;;;12.13;9.77;;;;;;;;;;5117474;27;20404;-72
2022/11/30 06:23:18;;;;;;;16.15;10.18;;;;;;;;;;5107129;27;20043;-71
2022/11/30 06:25:44;;;;;;;15.23;10.57;;;;;;;;;;5122196;27;20421;-71
2022/11/30 06:28:10;;;;;;;14.60;10.45;;;;;;;;;;5126696;27;20053;-72
2022/11/30 06:30:37;;;;;;;17.27;10.40;;;;;;;;;;5110920;28;20522;-72
2022/11/30 06:33:03;;;;;;;16.67;11.48;;;;;;;;;;5125902;27;20038;-72
2022/11/30 06:35:29;;;;;;;19.13;12.15;;;;;;;;;;5125839;27;20496;-71
2022/11/30 06:37:59;;;;;;;20.55;10.18;;;;;;;;;;5126930;27;20043;-72
2022/11/30 06:40:26;;;;;;;16.17;10.68;;;;;;;;;;5112430;27;20047;-71
2022/11/30 06:42:52;;;;;;;16.38;11.20;;;;;;;;;;5115630;27;20043;-71
2022/11/30 06:45:18;;;;;;;15.38;11.65;;;;;;;;;;5122770;27;20420;-71
2022/11/30 06:47:44;;;;;;;17.10;11.60;;;;;;;;;;5124184;27;20039;-72
2022/11/30 06:50:12;;;;;;;19.90;12.95;;;;;;;;;;5117836;27;20065;-71
2022/11/30 06:52:38;;;;;;;16.75;11.88;;;;;;;;;;5125500;27;20042;-72
2022/11/30 06:55:05;;;;;;;17.10;11.68;;;;;;;;;;5123133;27;20127;-72
2022/11/30 06:57:31;;;;;;;16.73;12.30;;;;;;;;;;5111633;27;20505;-72
2022/11/30 06:59:57;;;;;;;18.95;13.20;;;;;;;;;;5115063;27;20039;-72
2022/11/30 07:02:23;;;;;;;18.15;14.13;;;;;;;;;;5115408;28;20046;-72
2022/11/30 07:04:49;;;;;;;20.63;14.10;;;;;;;;;;5124474;28;20050;-72
2022/11/30 07:07:16;;;;;;;22.02;14.93;;;;;;;;;;5121125;28;20051;-72
2022/11/30 07:09:42;;;;;;;20.38;14.25;;;;;;;;;;5100115;28;20039;-72
2022/11/30 07:12:08;;;;;;;21.05;13.52;;;;;;;;;;5122953;28;20058;-72
2022/11/30 07:14:34;;;;;;;20.33;13.88;;;;;;;;;;5116175;28;20044;-71
2022/11/30 07:17:03;;;;;;;19.77;12.18;;;;;;;;;;5123483;28;20480;-72
2022/11/30 07:19:30;;;;;;;20.83;13.43;;;;;;;;;;5118454;28;20176;-72
2022/11/30 07:21:57;;;;;;;17.65;12.57;;;;;;;;;;5104817;28;20054;-72
2022/11/30 07:27:08;;;;;;;22.30;14.27;;;;;;;;;;5119769;27;20539;-72
2022/11/30 07:29:34;;;;;;;24.50;15.75;;;;;;;;;;5130899;27;20122;-72
2022/11/30 07:32:01;;;;;;;21.33;16.23;;;;;;;;;;5119318;27;20046;-72
2022/11/30 07:34:27;;;;;;;20.67;14.82;;;;;;;;;;5118475;27;20043;-71
2022/11/30 07:36:53;;;;;;;27.23;16.75;;;;;;;;;;5118826;27;20035;-72
2022/11/30 07:39:19;;;;;;;25.02;15.65;;;;;;;;;;5123702;27;20043;-71
2022/11/30 07:41:45;;;;;;;26.20;16.52;;;;;;;;;;5113599;27;20043;-72
2022/11/30 07:44:11;;;;;;;19.90;13.57;;;;;;;;;;5116778;27;20042;-72
2022/11/30 07:46:38;;;;;;;31.48;14.60;;;;;;;;;;5117997;27;20411;-72
2022/11/30 07:49:05;;;;;;;20.98;14.23;;;;;;;;;;5123261;27;20047;-72
2022/11/30 07:51:31;;;;;;;18.85;12.95;;;;;;;;;;5103340;27;20043;-72
2022/11/30 07:53:58;;;;;;;20.80;14.32;;;;;;;;;;5113275;27;20499;-72
2022/11/30 07:56:24;;;;;;;23.20;15.82;;;;;;;;;;5131019;27;20056;-71
2022/11/30 07:58:54;;;;;;;28.67;17.42;;;;;;;;;;5131001;27;20039;-72
2022/11/30 08:01:21;;;;;;;24.92;16.45;;;;;;;;;;5127811;27;20046;-72
2022/11/30 08:03:48;;;;;;;24.60;17.17;;;;;;;;;;5122797;27;20089;-72
2022/11/30 08:06:16;;;;;;;26.52;16.42;;;;;;;;;;5124672;27;20039;-72
2022/11/30 08:08:43;;;;;;;25.25;16.73;;;;;;;;;;5128106;27;20074;-72
2022/11/30 08:11:11;;;;;;;23.52;16.35;;;;;;;;;;5121300;27;20027;-72
2022/11/30 08:13:37;;;;;;;22.70;14.63;;;;;;;;;;5115578;27;20046;-72
2022/11/30 08:16:05;;;;;;;21.95;16.92;;;;;;;;;;5117579;27;20042;-72
2022/11/30 08:18:31;;;;;;;25.65;15.70;;;;;;;;;;5099772;28;20082;-72
2022/11/30 08:21:01;;;;;;;19.35;14.02;;;;;;;;;;5115198;27;20039;-72
2022/11/30 08:23:28;;;;;;;23.13;14.77;;;;;;;;;;5116104;27;20404;-71
2022/11/30 08:25:54;;;;;;;22.50;14.85;;;;;;;;;;5114886;27;20059;-71
2022/11/30 08:28:20;;;;;;;18.80;14.50;;;;;;;;;;5097791;27;20047;-72
2022/11/30 08:30:47;;;;;;;24.33;15.60;;;;;;;;;;5113261;27;20500;-72
2022/11/30 08:33:13;;;;;;;25.42;16.40;;;;;;;;;;5128742;27;20039;-72
2022/11/30 08:35:39;;;;;;;27.33;17.00;;;;;;;;;;5128654;27;20039;-72
2022/11/30 08:38:05;;;;;;;35.08;19.27;;;;;;;;;;5130402;27;20480;-72
2022/11/30 08:40:31;;;;;;;30.23;18.85;;;;;;;;;;5113977;27;20035;-72
2022/11/30 08:42:58;;;;;;;26.52;16.80;;;;;;;;;;5104194;27;20130;-71
2022/11/30 08:45:25;;;;;;;28.52;18.88;;;;;;;;;;5108979;27;20039;-72
2022/11/30 08:47:51;;;;;;;24.20;17.92;;;;;;;;;;5124082;27;20286;-73
2022/11/30 08:50:17;;;;;;;33.20;20.73;;;;;;;;;;5115725;27;20047;-72
2022/11/30 08:52:43;;;;;;;26.92;17.83;;;;;;;;;;5128168;27;20500;-72
2022/11/30 08:55:09;;;;;;;30.77;17.55;;;;;;;;;;5119482;27;20055;-72
2022/11/30 08:57:35;;;;;;;27.40;18.30;;;;;;;;;;5121815;27;20400;-71
2022/11/30 09:00:01;;;;;;;32.30;19.10;;;;;;;;;;5097927;28;20048;-72
2022/11/30 09:02:27;;;;;;;28.42;19.30;;;;;;;;;;5123803;27;20081;-72
2022/11/30 09:04:53;;;;;;;35.90;19.98;;;;;;;;;;5102208;27;20055;-71
2022/11/30 09:07:19;;;;;;;33.80;20.27;;;;;;;;;;5110083;28;20043;-72
2022/11/30 09:09:46;;;;;;;32.20;19.40;;;;;;;;;;5100854;27;20039;-72
2022/11/30 09:12:12;;;;;;;30.88;22.25;;;;;;;;;;5127031;27;20197;-72
2022/11/30 09:14:38;;;;;;;36.17;20.70;;;;;;;;;;5125455;27;20039;-72
2022/11/30 09:17:04;;;;;;;35.00;22.20;;;;;;;;;;5129774;27;20045;-72
2022/11/30 09:19:30;;;;;;;39.50;22.73;;;;;;;;;;5127330;27;20140;-72
2022/11/30 09:21:56;;;;;;;37.13;21.45;;;;;;;;;;5108160;27;20099;-72
2022/11/30 09:24:22;;;;;;;32.00;22.40;;;;;;;;;;5125294;27;20125;-72
2022/11/30 09:26:48;;;;;;;35.25;20.42;;;;;;;;;;5128183;27;20390;-73
2022/11/30 09:29:14;;;;;;;30.05;20.42;;;;;;;;;;5110432;27;20054;-73
2022/11/30 09:31:41;;;;;;;37.72;22.20;;;;;;;;;;5123657;27;20035;-72
2022/11/30 09:34:07;;;;;;;30.77;20.00;;;;;;;;;;5127668;27;20047;-71
2022/11/30 09:36:33;;;;;;;37.38;23.25;;;;;;;;;;5125631;27;20514;-72
2022/11/30 09:38:59;;;;;;;32.03;21.58;;;;;;;;;;5102113;27;20051;-72
2022/11/30 09:41:28;;;;;;;35.50;21.08;;;;;;;;;;5110532;27;20039;-72
2022/11/30 09:44:13;;;;;;;36.13;22.08;;;;;;;;;;5129376;27;20035;-72
2022/11/30 09:46:41;;;;;;;35.08;22.75;;;;;;;;;;5113346;27;20118;-72
2022/11/30 09:49:13;;;;;;;37.15;23.55;;;;;;;;;;5129334;27;20078;-73
2022/11/30 09:51:42;;;;;;;32.80;20.60;;;;;;;;;;5120070;27;20116;-72
2022/11/30 09:54:11;;;;;;;30.48;18.73;;;;;;;;;;5106285;27;20050;-73
2022/11/30 09:56:39;;;;;;;40.92;26.52;;;;;;;;;;5117216;27;20532;-72
2022/11/30 09:59:34;;;;;;;32.90;22.70;;;;;;;;;;5127258;27;20058;-72
2022/11/30 10:02:06;;;;;;;37.28;23.65;;;;;;;;;;5108545;27;20137;-72
2022/11/30 10:04:32;;;;;;;37.63;23.30;;;;;;;;;;5111873;28;20493;-73
2022/11/30 10:07:08;;;;;;;35.78;20.10;;;;;;;;;;5104314;27;20410;-72
2022/11/30 10:09:46;;;;;;;42.85;25.63;;;;;;;;;;5119462;27;20039;-72
2022/11/30 10:12:27;;;;;;;40.20;24.77;;;;;;;;;;5113543;27;20112;-73
2022/11/30 10:14:59;;;;;;;33.10;22.33;;;;;;;;;;5093881;28;20497;-72
2022/11/30 10:17:42;;;;;;;39.65;23.02;;;;;;;;;;5096082;27;20447;-73
2022/11/30 10:20:13;;;;;;;37.13;23.05;;;;;;;;;;5115891;27;20134;-72
2022/11/30 10:22:39;;;;;;;37.88;24.17;;;;;;;;;;5116960;27;20042;-72
2022/11/30 10:25:22;;;;;;;36.58;22.38;;;;;;;;;;5113570;27;20036;-73
2022/11/30 10:27:50;;;;;;;36.87;24.47;;;;;;;;;;5114474;27;20043;-72
2022/11/30 10:30:21;;;;;;;42.03;23.58;;;;;;;;;;5111913;27;20289;-72
2022/11/30 10:32:48;;;;;;;42.15;24.48;;;;;;;;;;5094059;27;20054;-73
2022/11/30 10:35:38;;;;;;;39.45;24.70;;;;;;;;;;5111830;27;20042;-72
2022/11/30 10:38:15;;;;;;;39.88;24.42;;;;;;;;;;5110060;27;20115;-73
2022/11/30 10:40:50;;;;;;;41.08;26.05;;;;;;;;;;5113400;27;20560;-72
2022/11/30 10:43:20;;;;;;;38.88;25.88;;;;;;;;;;5102889;27;20095;-72
2022/11/30 10:45:50;;;;;;;39.13;25.88;;;;;;;;;;5104009;28;20557;-73
2022/11/30 10:48:28;;;;;;;42.67;24.05;;;;;;;;;;5122539;27;20035;-72
2022/11/30 10:50:54;;;;;;;41.72;26.60;;;;;;;;;;5114696;27;20054;-72
2022/11/30 10:53:21;;;;;;;46.00;26.98;;;;;;;;;;5114616;27;20036;-72
2022/11/30 10:56:01;;;;;;;39.72;25.17;;;;;;;;;;5112199;27;20067;-73
2022/11/30 10:58:30;;;;;;;38.78;26.33;;;;;;;;;;5105675;28;20486;-72
2022/11/30 11:01:03;;;;;;;40.95;26.23;;;;;;;;;;5112825;27;20048;-73
2022/11/30 11:03:30;;;;;;;42.42;26.42;;;;;;;;;;5120626;27;20120;-72
2022/11/30 11:06:11;;;;;;;41.15;27.13;;;;;;;;;;5115115;28;20046;-73
2022/11/30 11:08:37;;;;;;;44.22;25.83;;;;;;;;;;5111203;28;20104;-72
2022/11/30 11:11:04;;;;;;;46.60;29.27;;;;;;;;;;5115533;28;20471;-74
2022/11/30 11:13:37;;;;;;;47.28;27.23;;;;;;;;;;5116314;28;20039;-72
2022/11/30 11:16:05;;;;;;;39.00;26.85;;;;;;;;;;5119204;28;20043;-74
2022/11/30 11:18:32;;;;;;;46.17;27.77;;;;;;;;;;5096767;28;20079;-72
2022/11/30 11:21:16;;;;;;;40.53;25.58;;;;;;;;;;5117028;28;20050;-72
2022/11/30 11:23:43;;;;;;;52.30;28.65;;;;;;;;;;5105859;28;20058;-72
2022/11/30 11:26:20;;;;;;;46.00;29.85;;;;;;;;;;5105842;28;20073;-72
2022/11/30 11:28:51;;;;;;;40.83;26.83;;;;;;;;;;5121860;28;20043;-72
2022/11/30 11:31:32;;;;;;;49.08;28.55;;;;;;;;;;5110831;28;20027;-72
2022/11/30 11:33:58;;;;;;;42.58;27.05;;;;;;;;;;5114405;28;20054;-72
2022/11/30 11:36:28;;;;;;;44.10;28.35;;;;;;;;;;5117055;28;20035;-72
2022/11/30 11:38:55;;;;;;;40.05;26.83;;;;;;;;;;5113565;28;20047;-73
2022/11/30 11:41:24;;;;;;;53.40;28.52;;;;;;;;;;5112958;28;20046;-73
2022/11/30 11:44:22;;;;;;;42.35;28.48;;;;;;;;;;5110925;28;20043;-73
2022/11/30 11:46:55;;;;;;;40.15;25.70;;;;;;;;;;5095730;28;20083;-73
2022/11/30 11:49:21;;;;;;;;;;;;;;;;;;5113427;28;20120;-73
2022/11/30 11:51:47;;;;;;;47.35;27.80;;;;;;;;;;5099272;28;19981;-71
2022/11/30 11:54:30;;;;;;;45.67;28.65;;;;;;;;;;5113049;28;20496;-72
2022/11/30 11:56:57;;;;;;;45.95;27.52;;;;;;;;;;5110170;28;20127;-73
2022/11/30 11:59:35;;;;;;;52.08;28.95;;;;;;;;;;5116023;28;20048;-73
2022/11/30 12:02:07;;;;;;;54.53;28.88;;;;;;;;;;5102808;28;20039;-73
2022/11/30 12:04:45;;;;;;;44.20;26.75;;;;;;;;;;5078220;28;20131;-73
2022/11/30 12:07:23;;;;;;;44.53;26.88;;;;;;;;;;5097805;28;20401;-73
2022/11/30 12:09:59;;;;;;;47.45;29.20;;;;;;;;;;5115127;27;20048;-72
2022/11/30 12:12:25;;;;;;;39.97;26.85;;;;;;;;;;5116630;27;20136;-73
2022/11/30 12:14:52;;;;;;;59.42;33.97;;;;;;;;;;5118258;27;20095;-73
2022/11/30 12:17:26;;;;;;;58.45;36.53;;;;;;;;;;5100441;28;20117;-73
2022/11/30 12:20:13;;;;;;;46.28;29.83;;;;;;;;;;5115205;27;20054;-73
2022/11/30 12:22:42;;;;;;;48.05;29.55;;;;;;;;;;5109271;28;20074;-73
2022/11/30 12:25:24;;;;;;;45.38;31.10;;;;;;;;;;5114053;27;20050;-73
2022/11/30 12:28:08;;;;;;;52.35;29.75;;;;;;;;;;5116238;27;20039;-73
2022/11/30 12:30:53;;;;;;;48.20;29.38;;;;;;;;;;5111800;27;20050;-73
2022/11/30 12:33:49;;;;;;;53.58;28.83;;;;;;;;;;5109298;27;20074;-73
2022/11/30 12:36:24;;;;;;;53.83;30.88;;;;;;;;;;5099612;27;20036;-72
2022/11/30 12:39:00;;;;;;;50.15;30.65;;;;;;;;;;5100711;27;20044;-73
2022/11/30 12:41:41;;;;;;;46.38;31.10;;;;;;;;;;5118677;27;20047;-73
2022/11/30 12:44:27;;;;;;;51.13;29.67;;;;;;;;;;5115134;27;20130;-73
2022/11/30 12:47:15;;;;;;;48.60;28.85;;;;;;;;;;5120052;27;20086;-73
2022/11/30 12:49:56;;;;;;;49.30;29.27;;;;;;;;;;5113688;27;20294;-73
2022/11/30 12:52:29;;;;;;;47.92;30.70;;;;;;;;;;5112975;27;20082;-73
2022/11/30 12:55:04;;;;;;;52.80;30.90;;;;;;;;;;5116312;27;20050;-73
2022/11/30 12:57:35;;;;;;;53.38;31.85;;;;;;;;;;5108667;27;20058;-73
2022/11/30 13:00:20;;;;;;;50.47;29.85;;;;;;;;;;5112455;27;20408;-72
2022/11/30 13:02:58;;;;;;;52.65;32.25;;;;;;;;;;5113815;27;20047;-73
2022/11/30 13:05:30;;;;;;;56.70;33.88;;;;;;;;;;5115639;27;20040;-73
2022/11/30 13:08:07;;;;;;;60.58;33.63;;;;;;;;;;5096592;28;20058;-73
2022/11/30 13:10:36;;;;;;;55.88;32.00;;;;;;;;;;5109055;27;20540;-72
2022/11/30 13:13:03;;;;;;;52.95;32.17;;;;;;;;;;5114175;27;20043;-73
2022/11/30 13:15:32;;;;;;;54.42;31.38;;;;;;;;;;5114954;27;20369;-72
2022/11/30 13:18:00;;;;;;;56.75;33.47;;;;;;;;;;5099309;28;20082;-73
2022/11/30 13:20:33;;;;;;;59.65;36.45;;;;;;;;;;5094330;28;20047;-73
2022/11/30 13:23:18;;;;;;;67.00;35.88;;;;;;;;;;5094415;28;20055;-73
2022/11/30 13:25:54;;;;;;;65.15;37.22;;;;;;;;;;5112061;27;20052;-73
2022/11/30 13:28:20;;;;;;;62.78;38.10;;;;;;;;;;5113434;27;20043;-72
2022/11/30 13:30:49;;;;;;;59.33;33.22;;;;;;;;;;5115054;27;20385;-73
2022/11/30 13:33:34;;;;;;;63.75;36.92;;;;;;;;;;5114555;27;20036;-73
2022/11/30 13:36:20;;;;;;;59.00;34.85;;;;;;;;;;5096914;28;20165;-73
2022/11/30 13:38:47;;;;;;;59.45;35.13;;;;;;;;;;5116301;27;20075;-73
2022/11/30 13:41:19;;;;;;;61.70;36.95;;;;;;;;;;5117772;27;20039;-73
2022/11/30 13:43:47;;;;;;;62.28;36.53;;;;;;;;;;5076833;27;20075;-73
2022/11/30 13:46:20;;;;;;;68.28;37.90;;;;;;;;;;5116833;27;20127;-73
2022/11/30 13:48:47;;;;;;;52.70;34.72;;;;;;;;;;5099149;27;20118;-73
2022/11/30 13:51:13;;;;;;;56.28;34.35;;;;;;;;;;5116540;27;20047;-73
2022/11/30 13:53:40;;;;;;;59.40;34.67;;;;;;;;;;5116168;27;20661;-73
2022/11/30 13:56:26;;;;;;;59.05;36.78;;;;;;;;;;5094378;27;20465;-73
2022/11/30 13:59:10;;;;;;;65.28;35.88;;;;;;;;;;5110128;27;20047;-73
2022/11/30 14:01:36;;;;;;;63.13;36.63;;;;;;;;;;5099203;27;20619;-74
2022/11/30 14:04:15;;;;;;;62.03;35.67;;;;;;;;;;5089986;27;20138;-73
2022/11/30 14:06:41;;;;;;;62.45;33.38;;;;;;;;;;5101758;27;20050;-73
2022/11/30 14:09:14;;;;;;;58.92;35.70;;;;;;;;;;5086041;27;20169;-73
2022/11/30 14:11:44;;;;;;;60.53;35.20;;;;;;;;;;5102009;28;20131;-73
2022/11/30 14:14:29;;;;;;;57.88;34.60;;;;;;;;;;5081346;27;20510;-73
2022/11/30 14:16:56;;;;;;;60.08;34.22;;;;;;;;;;5114670;27;20054;-73
2022/11/30 14:19:22;;;;;;;66.35;35.00;;;;;;;;;;5092918;27;20050;-73
2022/11/30 14:21:48;;;;;;;65.57;37.00;;;;;;;;;;5123368;27;20054;-73
2022/11/30 14:24:20;;;;;;;56.03;35.08;;;;;;;;;;5121662;27;20411;-73
2022/11/30 14:26:47;;;;;;;64.28;38.50;;;;;;;;;;5123117;27;20130;-73
2022/11/30 14:29:35;;;;;;;65.05;37.42;;;;;;;;;;5117327;27;20044;-73
2022/11/30 14:32:06;;;;;;;59.33;34.70;;;;;;;;;;5112716;27;20039;-71